sensor_id;sensor_type;location;lat;lon;timestamp;temperature;humidity
68648;SHT31;55632;51.962;16.116;2023-02-11T00:00:22;2.22;81.46
68648;SHT31;55632;51.962;16.116;2023-02-11T00:05:23;2.19;81.42
68648;SHT31;55632;51.962;16.116;2023-02-11T00:10:23;2.18;81.42
68648;SHT31;55632;51.962;16.116;2023-02-11T00:15:24;2.18;81.38
68648;SHT31;55632;51.962;16.116;2023-02-11T00:20:25;2.16;81.31
68648;SHT31;55632;51.962;16.116;2023-02-11T00:25:26;2.15;81.30
68648;SHT31;55632;51.962;16.116;2023-02-11T00:30:26;2.16;81.18
68648;SHT31;55632;51.962;16.116;2023-02-11T00:35:28;2.15;81.14
68648;SHT31;55632;51.962;16.116;2023-02-11T00:40:29;2.13;81.07
68648;SHT31;55632;51.962;16.116;2023-02-11T00:45:29;2.13;81.06
68648;SHT31;55632;51.962;16.116;2023-02-11T00:50:30;2.13;80.94
68648;SHT31;55632;51.962;16.116;2023-02-11T00:55:32;2.12;80.90
68648;SHT31;55632;51.962;16.116;2023-02-11T01:00:32;2.13;80.84
68648;SHT31;55632;51.962;16.116;2023-02-11T01:05:33;2.11;80.67
68648;SHT31;55632;51.962;16.116;2023-02-11T01:10:34;2.09;80.68
68648;SHT31;55632;51.962;16.116;2023-02-11T01:15:35;2.11;80.62
68648;SHT31;55632;51.962;16.116;2023-02-11T01:20:37;2.08;80.53
68648;SHT31;55632;51.962;16.116;2023-02-11T01:25:38;2.08;80.37
68648;SHT31;55632;51.962;16.116;2023-02-11T01:30:39;2.08;80.35
68648;SHT31;55632;51.962;16.116;2023-02-11T01:35:42;2.04;80.30
68648;SHT31;55632;51.962;16.116;2023-02-11T01:40:52;2.04;80.23
68648;SHT31;55632;51.962;16.116;2023-02-11T01:50:56;2.04;80.13
68648;SHT31;55632;51.962;16.116;2023-02-11T01:56:02;2.06;80.07
68648;SHT31;55632;51.962;16.116;2023-02-11T02:01:24;2.08;79.97
68648;SHT31;55632;51.962;16.116;2023-02-11T02:06:36;2.09;79.86
68648;SHT31;55632;51.962;16.116;2023-02-11T02:11:39;2.06;79.86
68648;SHT31;55632;51.962;16.116;2023-02-11T02:16:41;2.09;79.78
68648;SHT31;55632;51.962;16.116;2023-02-11T02:27:01;2.12;79.67
68648;SHT31;55632;51.962;16.116;2023-02-11T02:37:32;2.13;79.63
68648;SHT31;55632;51.962;16.116;2023-02-11T02:42:35;2.15;79.63
68648;SHT31;55632;51.962;16.116;2023-02-11T02:47:38;2.18;79.56
68648;SHT31;55632;51.962;16.116;2023-02-11T03:08:38;2.22;79.49
68648;SHT31;55632;51.962;16.116;2023-02-11T03:13:47;2.23;79.52
68648;SHT31;55632;51.962;16.116;2023-02-11T03:18:54;2.29;79.51
68648;SHT31;55632;51.962;16.116;2023-02-11T03:24:00;2.30;79.42
68648;SHT31;55632;51.962;16.116;2023-02-11T03:29:17;2.32;79.37
68648;SHT31;55632;51.962;16.116;2023-02-11T03:34:32;2.33;79.43
68648;SHT31;55632;51.962;16.116;2023-02-11T03:39:38;2.33;79.44
68648;SHT31;55632;51.962;16.116;2023-02-11T03:44:50;2.36;79.40
68648;SHT31;55632;51.962;16.116;2023-02-11T03:49:53;2.37;79.47
68648;SHT31;55632;51.962;16.116;2023-02-11T03:54:56;2.40;79.50
68648;SHT31;55632;51.962;16.116;2023-02-11T03:59:58;2.43;79.57
68648;SHT31;55632;51.962;16.116;2023-02-11T04:05:01;2.44;79.64
68648;SHT31;55632;51.962;16.116;2023-02-11T04:10:03;2.44;79.73
68648;SHT31;55632;51.962;16.116;2023-02-11T04:15:05;2.46;79.76
68648;SHT31;55632;51.962;16.116;2023-02-11T04:20:10;2.43;79.89
68648;SHT31;55632;51.962;16.116;2023-02-11T04:25:14;2.47;80.03
68648;SHT31;55632;51.962;16.116;2023-02-11T04:30:15;2.50;80.14
68648;SHT31;55632;51.962;16.116;2023-02-11T04:35:16;2.51;80.20
68648;SHT31;55632;51.962;16.116;2023-02-11T04:40:24;2.53;80.20
68648;SHT31;55632;51.962;16.116;2023-02-11T04:45:25;2.56;80.27
68648;SHT31;55632;51.962;16.116;2023-02-11T04:50:25;2.58;80.30
68648;SHT31;55632;51.962;16.116;2023-02-11T04:55:29;2.64;80.40
68648;SHT31;55632;51.962;16.116;2023-02-11T05:00:29;2.67;80.52
68648;SHT31;55632;51.962;16.116;2023-02-11T05:05:30;2.68;80.60
68648;SHT31;55632;51.962;16.116;2023-02-11T05:10:31;2.73;80.77
68648;SHT31;55632;51.962;16.116;2023-02-11T05:15:31;2.77;80.85
68648;SHT31;55632;51.962;16.116;2023-02-11T05:20:32;2.80;81.00
68648;SHT31;55632;51.962;16.116;2023-02-11T05:25:33;2.80;81.25
68648;SHT31;55632;51.962;16.116;2023-02-11T05:30:34;2.82;81.28
68648;SHT31;55632;51.962;16.116;2023-02-11T05:35:35;2.87;81.70
68648;SHT31;55632;51.962;16.116;2023-02-11T05:40:35;2.92;81.76
68648;SHT31;55632;51.962;16.116;2023-02-11T05:45:36;2.96;81.97
68648;SHT31;55632;51.962;16.116;2023-02-11T05:50:37;3.02;82.22
68648;SHT31;55632;51.962;16.116;2023-02-11T05:55:38;3.06;82.31
68648;SHT31;55632;51.962;16.116;2023-02-11T06:00:39;3.09;82.52
68648;SHT31;55632;51.962;16.116;2023-02-11T06:05:42;3.12;82.69
68648;SHT31;55632;51.962;16.116;2023-02-11T06:10:46;3.16;82.86
68648;SHT31;55632;51.962;16.116;2023-02-11T06:15:55;3.22;83.04
68648;SHT31;55632;51.962;16.116;2023-02-11T06:20:56;3.22;83.25
68648;SHT31;55632;51.962;16.116;2023-02-11T06:26:00;3.24;83.47
68648;SHT31;55632;51.962;16.116;2023-02-11T06:31:05;3.30;83.50
68648;SHT31;55632;51.962;16.116;2023-02-11T06:36:17;3.30;83.61
68648;SHT31;55632;51.962;16.116;2023-02-11T06:41:19;3.31;83.82
68648;SHT31;55632;51.962;16.116;2023-02-11T06:46:19;3.37;84.02
68648;SHT31;55632;51.962;16.116;2023-02-11T06:51:20;3.41;84.04
68648;SHT31;55632;51.962;16.116;2023-02-11T06:56:23;3.44;84.10
68648;SHT31;55632;51.962;16.116;2023-02-11T07:01:25;3.48;84.17
68648;SHT31;55632;51.962;16.116;2023-02-11T07:06:26;3.51;84.25
68648;SHT31;55632;51.962;16.116;2023-02-11T07:11:28;3.57;84.27
68648;SHT31;55632;51.962;16.116;2023-02-11T07:16:29;3.61;84.29
68648;SHT31;55632;51.962;16.116;2023-02-11T07:21:30;3.67;84.30
68648;SHT31;55632;51.962;16.116;2023-02-11T07:26:31;3.74;84.41
68648;SHT31;55632;51.962;16.116;2023-02-11T07:31:32;3.77;84.38
68648;SHT31;55632;51.962;16.116;2023-02-11T07:36:32;3.81;84.41
68648;SHT31;55632;51.962;16.116;2023-02-11T07:41:36;3.86;84.37
68648;SHT31;55632;51.962;16.116;2023-02-11T07:46:37;3.90;84.41
68648;SHT31;55632;51.962;16.116;2023-02-11T07:51:42;3.97;84.38
68648;SHT31;55632;51.962;16.116;2023-02-11T07:56:42;4.02;84.44
68648;SHT31;55632;51.962;16.116;2023-02-11T08:01:43;4.05;84.41
68648;SHT31;55632;51.962;16.116;2023-02-11T08:06:45;4.14;84.47
68648;SHT31;55632;51.962;16.116;2023-02-11T08:11:45;4.16;84.55
68648;SHT31;55632;51.962;16.116;2023-02-11T08:16:46;4.20;84.50
68648;SHT31;55632;51.962;16.116;2023-02-11T08:21:47;4.21;84.65
68648;SHT31;55632;51.962;16.116;2023-02-11T08:26:48;4.29;84.68
68648;SHT31;55632;51.962;16.116;2023-02-11T08:31:49;4.34;84.81
68648;SHT31;55632;51.962;16.116;2023-02-11T08:36:49;4.44;84.92
68648;SHT31;55632;51.962;16.116;2023-02-11T08:41:52;4.54;84.93
68648;SHT31;55632;51.962;16.116;2023-02-11T08:46:54;4.62;84.77
68648;SHT31;55632;51.962;16.116;2023-02-11T08:51:56;4.68;84.69
68648;SHT31;55632;51.962;16.116;2023-02-11T08:57:01;4.75;84.57
68648;SHT31;55632;51.962;16.116;2023-02-11T09:02:05;4.82;84.66
68648;SHT31;55632;51.962;16.116;2023-02-11T09:07:07;4.90;84.59
68648;SHT31;55632;51.962;16.116;2023-02-11T09:12:07;4.94;84.53
68648;SHT31;55632;51.962;16.116;2023-02-11T09:17:09;5.03;84.46
68648;SHT31;55632;51.962;16.116;2023-02-11T09:22:11;5.06;84.41
68648;SHT31;55632;51.962;16.116;2023-02-11T09:27:12;5.09;84.36
68648;SHT31;55632;51.962;16.116;2023-02-11T09:32:18;5.07;84.28
68648;SHT31;55632;51.962;16.116;2023-02-11T09:37:19;5.11;84.40
68648;SHT31;55632;51.962;16.116;2023-02-11T09:47:54;5.26;84.24
68648;SHT31;55632;51.962;16.116;2023-02-11T09:53:19;5.27;84.21
68648;SHT31;55632;51.962;16.116;2023-02-11T09:58:29;5.28;84.21
68648;SHT31;55632;51.962;16.116;2023-02-11T10:15:07;5.39;84.12
68648;SHT31;55632;51.962;16.116;2023-02-11T10:25:38;5.42;84.10
68648;SHT31;55632;51.962;16.116;2023-02-11T10:31:09;5.45;84.07
68648;SHT31;55632;51.962;16.116;2023-02-11T10:36:15;5.51;84.08
68648;SHT31;55632;51.962;16.116;2023-02-11T10:41:28;5.55;84.06
68648;SHT31;55632;51.962;16.116;2023-02-11T10:46:33;5.56;84.03
68648;SHT31;55632;51.962;16.116;2023-02-11T11:02:30;5.77;83.88
68648;SHT31;55632;51.962;16.116;2023-02-11T11:07:37;5.83;83.74
68648;SHT31;55632;51.962;16.116;2023-02-11T11:18:09;5.98;83.53
68648;SHT31;55632;51.962;16.116;2023-02-11T11:23:21;6.04;83.53
68648;SHT31;55632;51.962;16.116;2023-02-11T11:28:27;6.11;83.43
68648;SHT31;55632;51.962;16.116;2023-02-11T11:33:35;6.15;83.36
68648;SHT31;55632;51.962;16.116;2023-02-11T11:38:44;6.21;83.42
68648;SHT31;55632;51.962;16.116;2023-02-11T11:49:24;6.32;83.27
68648;SHT31;55632;51.962;16.116;2023-02-11T11:54:32;6.34;83.37
68648;SHT31;55632;51.962;16.116;2023-02-11T11:59:37;6.36;83.29
68648;SHT31;55632;51.962;16.116;2023-02-11T12:05:01;6.43;83.29
68648;SHT31;55632;51.962;16.116;2023-02-11T12:15:33;6.46;83.20
68648;SHT31;55632;51.962;16.116;2023-02-11T12:26:24;6.48;83.25
68648;SHT31;55632;51.962;16.116;2023-02-11T12:53:34;6.57;83.76
68648;SHT31;55632;51.962;16.116;2023-02-11T12:58:39;6.56;83.97
68648;SHT31;55632;51.962;16.116;2023-02-11T13:03:43;6.59;84.18
68648;SHT31;55632;51.962;16.116;2023-02-11T13:08:53;6.59;84.36
68648;SHT31;55632;51.962;16.116;2023-02-11T13:44:59;6.35;86.65
68648;SHT31;55632;51.962;16.116;2023-02-11T13:50:02;6.35;87.17
68648;SHT31;55632;51.962;16.116;2023-02-11T13:55:19;6.34;87.51
68648;SHT31;55632;51.962;16.116;2023-02-11T14:05:34;6.31;87.88
68648;SHT31;55632;51.962;16.116;2023-02-11T14:16:14;6.34;88.22
68648;SHT31;55632;51.962;16.116;2023-02-11T14:36:57;6.29;88.74
68648;SHT31;55632;51.962;16.116;2023-02-11T14:42:16;6.31;88.79
68648;SHT31;55632;51.962;16.116;2023-02-11T14:47:22;6.29;88.85
68648;SHT31;55632;51.962;16.116;2023-02-11T14:52:29;6.31;88.96
68648;SHT31;55632;51.962;16.116;2023-02-11T14:57:31;6.31;89.03
68648;SHT31;55632;51.962;16.116;2023-02-11T15:02:35;6.32;89.03
68648;SHT31;55632;51.962;16.116;2023-02-11T15:07:36;6.35;89.04
68648;SHT31;55632;51.962;16.116;2023-02-11T15:12:44;6.34;89.04
68648;SHT31;55632;51.962;16.116;2023-02-11T15:17:49;6.35;89.09
68648;SHT31;55632;51.962;16.116;2023-02-11T15:22:57;6.35;89.13
68648;SHT31;55632;51.962;16.116;2023-02-11T15:27:59;6.36;89.18
68648;SHT31;55632;51.962;16.116;2023-02-11T15:33:02;6.38;89.17
68648;SHT31;55632;51.962;16.116;2023-02-11T15:38:05;6.36;89.25
68648;SHT31;55632;51.962;16.116;2023-02-11T15:43:08;6.41;89.26
68648;SHT31;55632;51.962;16.116;2023-02-11T15:48:15;6.39;89.34
68648;SHT31;55632;51.962;16.116;2023-02-11T15:53:24;6.39;89.38
68648;SHT31;55632;51.962;16.116;2023-02-11T15:58:26;6.36;89.49
68648;SHT31;55632;51.962;16.116;2023-02-11T16:03:28;6.38;89.57
68648;SHT31;55632;51.962;16.116;2023-02-11T16:08:32;6.41;89.59
68648;SHT31;55632;51.962;16.116;2023-02-11T16:13:45;6.39;89.69
68648;SHT31;55632;51.962;16.116;2023-02-11T16:18:54;6.42;89.74
68648;SHT31;55632;51.962;16.116;2023-02-11T16:23:57;6.45;89.81
68648;SHT31;55632;51.962;16.116;2023-02-11T16:29:13;6.45;89.87
68648;SHT31;55632;51.962;16.116;2023-02-11T16:34:17;6.46;89.88
68648;SHT31;55632;51.962;16.116;2023-02-11T16:39:20;6.48;89.93
68648;SHT31;55632;51.962;16.116;2023-02-11T16:44:22;6.45;89.99
68648;SHT31;55632;51.962;16.116;2023-02-11T16:49:24;6.49;90.03
68648;SHT31;55632;51.962;16.116;2023-02-11T16:54:28;6.50;90.09
68648;SHT31;55632;51.962;16.116;2023-02-11T16:59:29;6.52;90.20
68648;SHT31;55632;51.962;16.116;2023-02-11T17:04:31;6.52;90.24
68648;SHT31;55632;51.962;16.116;2023-02-11T17:09:33;6.52;90.31
68648;SHT31;55632;51.962;16.116;2023-02-11T17:14:34;6.52;90.35
68648;SHT31;55632;51.962;16.116;2023-02-11T17:19:36;6.52;90.42
68648;SHT31;55632;51.962;16.116;2023-02-11T17:24:37;6.53;90.48
68648;SHT31;55632;51.962;16.116;2023-02-11T17:29:44;6.52;90.54
68648;SHT31;55632;51.962;16.116;2023-02-11T17:34:47;6.52;90.60
68648;SHT31;55632;51.962;16.116;2023-02-11T17:39:50;6.53;90.64
68648;SHT31;55632;51.962;16.116;2023-02-11T17:44:52;6.54;90.73
68648;SHT31;55632;51.962;16.116;2023-02-11T17:49:53;6.56;90.81
68648;SHT31;55632;51.962;16.116;2023-02-11T17:54:54;6.56;90.87
68648;SHT31;55632;51.962;16.116;2023-02-11T17:59:56;6.59;90.90
68648;SHT31;55632;51.962;16.116;2023-02-11T18:04:57;6.60;91.05
68648;SHT31;55632;51.962;16.116;2023-02-11T18:10:00;6.63;91.04
68648;SHT31;55632;51.962;16.116;2023-02-11T18:15:10;6.65;91.05
68648;SHT31;55632;51.962;16.116;2023-02-11T18:20:20;6.66;91.07
68648;SHT31;55632;51.962;16.116;2023-02-11T18:25:23;6.66;91.09
68648;SHT31;55632;51.962;16.116;2023-02-11T18:30:24;6.67;91.20
68648;SHT31;55632;51.962;16.116;2023-02-11T18:35:27;6.67;91.18
68648;SHT31;55632;51.962;16.116;2023-02-11T18:40:35;6.67;91.27
68648;SHT31;55632;51.962;16.116;2023-02-11T18:45:47;6.69;91.26
68648;SHT31;55632;51.962;16.116;2023-02-11T18:50:52;6.70;91.32
68648;SHT31;55632;51.962;16.116;2023-02-11T18:55:54;6.66;91.37
68648;SHT31;55632;51.962;16.116;2023-02-11T19:00:58;6.67;91.36
68648;SHT31;55632;51.962;16.116;2023-02-11T19:05:59;6.67;91.36
68648;SHT31;55632;51.962;16.116;2023-02-11T19:11:03;6.69;91.39
68648;SHT31;55632;51.962;16.116;2023-02-11T19:16:08;6.66;91.41
68648;SHT31;55632;51.962;16.116;2023-02-11T19:21:10;6.69;91.47
68648;SHT31;55632;51.962;16.116;2023-02-11T19:26:12;6.66;91.51
68648;SHT31;55632;51.962;16.116;2023-02-11T19:31:13;6.66;91.56
68648;SHT31;55632;51.962;16.116;2023-02-11T19:36:14;6.67;91.55
68648;SHT31;55632;51.962;16.116;2023-02-11T19:41:16;6.65;91.66
68648;SHT31;55632;51.962;16.116;2023-02-11T19:46:23;6.65;91.73
68648;SHT31;55632;51.962;16.116;2023-02-11T19:51:24;6.65;91.74
68648;SHT31;55632;51.962;16.116;2023-02-11T19:56:26;6.63;91.74
68648;SHT31;55632;51.962;16.116;2023-02-11T20:01:47;6.59;91.75
68648;SHT31;55632;51.962;16.116;2023-02-11T20:06:48;6.56;91.78
68648;SHT31;55632;51.962;16.116;2023-02-11T20:11:49;6.56;91.84
68648;SHT31;55632;51.962;16.116;2023-02-11T20:16:50;6.59;91.83
68648;SHT31;55632;51.962;16.116;2023-02-11T20:21:52;6.56;91.91
68648;SHT31;55632;51.962;16.116;2023-02-11T20:26:55;6.54;91.94
68648;SHT31;55632;51.962;16.116;2023-02-11T20:31:56;6.52;91.95
68648;SHT31;55632;51.962;16.116;2023-02-11T20:36:58;6.54;91.98
68648;SHT31;55632;51.962;16.116;2023-02-11T20:42:00;6.52;92.02
68648;SHT31;55632;51.962;16.116;2023-02-11T20:47:01;6.53;92.01
68648;SHT31;55632;51.962;16.116;2023-02-11T20:52:02;6.53;92.04
68648;SHT31;55632;51.962;16.116;2023-02-11T20:57:03;6.53;92.05
68648;SHT31;55632;51.962;16.116;2023-02-11T21:02:05;6.52;92.04
68648;SHT31;55632;51.962;16.116;2023-02-11T21:07:07;6.50;92.07
68648;SHT31;55632;51.962;16.116;2023-02-11T21:12:08;6.52;92.08
68648;SHT31;55632;51.962;16.116;2023-02-11T21:17:09;6.49;92.09
68648;SHT31;55632;51.962;16.116;2023-02-11T21:22:12;6.50;92.12
68648;SHT31;55632;51.962;16.116;2023-02-11T21:27:13;6.49;92.17
68648;SHT31;55632;51.962;16.116;2023-02-11T21:32:14;6.52;92.21
68648;SHT31;55632;51.962;16.116;2023-02-11T21:37:19;6.54;92.19
68648;SHT31;55632;51.962;16.116;2023-02-11T21:42:20;6.54;92.21
68648;SHT31;55632;51.962;16.116;2023-02-11T21:47:22;6.59;92.21
68648;SHT31;55632;51.962;16.116;2023-02-11T21:52:23;6.56;92.21
68648;SHT31;55632;51.962;16.116;2023-02-11T21:57:26;6.54;92.04
68648;SHT31;55632;51.962;16.116;2023-02-11T22:02:27;6.49;91.94
68648;SHT31;55632;51.962;16.116;2023-02-11T22:07:28;6.41;91.80
68648;SHT31;55632;51.962;16.116;2023-02-11T22:12:29;6.32;91.76
68648;SHT31;55632;51.962;16.116;2023-02-11T22:17:30;6.22;91.69
68648;SHT31;55632;51.962;16.116;2023-02-11T22:22:30;6.08;91.76
68648;SHT31;55632;51.962;16.116;2023-02-11T22:27:33;5.96;91.74
68648;SHT31;55632;51.962;16.116;2023-02-11T22:32:33;5.86;91.73
68648;SHT31;55632;51.962;16.116;2023-02-11T22:37:34;5.67;91.74
68648;SHT31;55632;51.962;16.116;2023-02-11T22:42:35;5.58;91.66
68648;SHT31;55632;51.962;16.116;2023-02-11T22:47:36;5.51;91.89
68648;SHT31;55632;51.962;16.116;2023-02-11T22:52:38;5.39;91.88
68648;SHT31;55632;51.962;16.116;2023-02-11T22:57:39;5.28;91.98
68648;SHT31;55632;51.962;16.116;2023-02-11T23:02:40;5.16;92.00
68648;SHT31;55632;51.962;16.116;2023-02-11T23:07:41;5.11;92.09
68648;SHT31;55632;51.962;16.116;2023-02-11T23:12:42;4.96;91.92
68648;SHT31;55632;51.962;16.116;2023-02-11T23:17:43;4.82;92.00
68648;SHT31;55632;51.962;16.116;2023-02-11T23:22:43;4.69;91.84
68648;SHT31;55632;51.962;16.116;2023-02-11T23:27:44;4.58;91.96
68648;SHT31;55632;51.962;16.116;2023-02-11T23:32:45;4.47;91.97
68648;SHT31;55632;51.962;16.116;2023-02-11T23:37:46;4.34;91.97
68648;SHT31;55632;51.962;16.116;2023-02-11T23:42:47;4.29;92.13
68648;SHT31;55632;51.962;16.116;2023-02-11T23:47:48;4.18;92.16
68648;SHT31;55632;51.962;16.116;2023-02-11T23:52:49;4.11;92.23
68648;SHT31;55632;51.962;16.116;2023-02-11T23:57:51;4.17;92.69
